Visit the IPS Meteostar Home Page IPSM China Lake Naval Air Facility FORECAST

China Lake, California

71

74

82

79

76

76

81

81

55
55
58
56
56
56
56

3 miles away at China Lake Naval Air Facility 17:56 GMT

Weather:

Mostly Cloudy

Wind:

E 10 Gusting to 17 mph

Temperature:

71 ° F

Pressure:

29.85

Dew Point:

30 ° F

Relative Humidity:

21

Feels Like:

71 ° F

Visibility:

10 miles


Aviation Observations:

KNID 251756Z 08009G15KT 10SM SCT270 BKN300 22/M01 A2987 RMK AO2 SLP102 T02171011 10222 20117 51016 $ =

National Weather Service Forecast:
Indian Wells Valley

indian wells valley-
802 AM PDT TUE APR 25 2017

TODAY

Mostly sunny. Breezy. Highs 69 to 79. Southwest winds 15 to 25 mph.

TONIGHT

Partly cloudy. Breezy. Lows 52 to 57. West winds 15 to 25 mph with gusts to around 40 mph.

WEDNESDAY

Sunny, windy, warmer. Highs 77 to 87. West winds 10 to 15 mph in the morning shifting to the southwest 20 to 30 mph in the afternoon. Gusts up to 45 mph.

WEDNESDAY NIGHT

Mostly clear. Windy. Lows 55 to 60. West winds 20 to 30 mph. Gusts up to 55 mph in the evening.

THURSDAY

Sunny. Highs 74 to 84. West winds 10 to 15 mph.

THURSDAY NIGHT

Mostly clear. Lows 53 to 58.

FRIDAY THROUGH SATURDAY NIGHT

Clear. Highs 71 to 81. Lows 50 to 58.

SUNDAY THROUGH MONDAY

Clear. Highs 76 to 86. Lows 52 to 61.
temperature / precipitation
inyokern 76 54 84 / 0 0 0
ridgecrest 79 53 86 / 0 0 0


Visit the IPS Meteostar Home Page